Flight Track Log - Related Links

Times and Time Zones

All times are in EDT time to prevent confusion due to time zone crossing. See the WIS700 flight status page for this flight to view local times or setup timezone preferences in your user account.

Time Position Orientation Groundspeed Altitude Reporting Facility
EDT Latitude Longitude Course Direction KTS MPH feet Rate Location/Type
Fri 12:24:27 AM 41.9667 -88.2500 360° North 126 145 3,000  Level Chicago TRACON
Fri 12:25:09 AM 41.9981 -88.2539 355° North 130 150 3,500 641 Climbing Chicago Center
Fri 12:26:10 AM 42.0356 -88.2564 357° North 133 153 4,100 248 Climbing Chicago Center
Fri 12:27:10 AM 42.0828 -88.2631 354° North 163 188 4,000 -50 Descending Chicago Center
Fri 12:28:11 AM 42.1297 -88.2719 352° North 169 194 4,000  Level Chicago Center
Fri 12:29:12 AM 42.1778 -88.2772 355° North 172 198 4,000  Level Chicago Center
Fri 12:30:13 AM 42.2247 -88.2892 349° North 173 199 4,000  Level Chicago Center
Fri 12:31:13 AM 42.2708 -88.3022 348° North 172 198 4,000  Level Chicago Center
Fri 12:32:14 AM 42.3192 -88.3053 357° North 172 198 4,000  Level Chicago Center
Fri 12:33:15 AM 42.3711 -88.3058 360° North 173 199 4,000  Level Chicago Center
Fri 12:34:15 AM 42.4197 -88.3072 359° North 174 200 4,000  Level Chicago Center
Fri 12:35:16 AM 42.4689 -88.3119 356° North 176 203 4,000  Level Chicago Center
Fri 12:36:17 AM 42.5164 -88.3211 352° North 174 200 4,000  Level Chicago Center
Fri 12:37:17 AM 42.5639 -88.3308 351° North 173 199 4,000 50 Level Chicago Center
Fri 12:38:18 AM 42.6114 -88.3422 350° North 173 199 4,100 50 Climbing Chicago Center
Fri 12:39:18 AM 42.6586 -88.3575 347° North 173 199 4,100  Level Chicago Center
Fri 12:40:19 AM 42.7075 -88.3686 351° North 175 201 4,100  Level Chicago Center
Fri 12:41:19 AM 42.7544 -88.3803 350° North 174 200 4,100  Level Chicago Center
Fri 12:42:20 AM 42.8025 -88.3867 354° North 174 200 4,100 -49 Level Chicago Center
Fri 12:43:21 AM 42.8597 -88.3936 355° North 176 203 4,000  Descending Chicago Center
Fri 12:44:21 AM 42.9083 -88.3981 356° North 175 201 4,100 50 Climbing Chicago Center
Fri 12:45:22 AM 42.9567 -88.4044 354° North 175 201 4,100  Level Chicago Center
Fri 12:46:22 AM 43.0061 -88.4106 355° North 176 203 4,100  Level Chicago Center
Fri 12:47:23 AM 43.0539 -88.4156 356° North 174 200 4,100  Level Chicago Center
Fri 12:48:23 AM 43.1022 -88.4219 354° North 174 200 4,100  Level Chicago Center
Fri 12:49:24 AM 43.1500 -88.4303 353° North 174 200 4,100  Level Chicago Center
Fri 12:50:24 AM 43.1994 -88.4361 355° North 176 203 4,100  Level Chicago Center
Fri 12:51:25 AM 43.2469 -88.4436 353° North 174 200 4,100  Level Chicago Center
Fri 12:52:25 AM 43.2953 -88.4478 356° North 174 200 4,100  Level Chicago Center
Fri 12:53:26 AM 43.3439 -88.4522 356° North 174 200 4,100  Level Chicago Center
Fri 12:54:26 AM 43.3894 -88.4581 355° North 175 201 4,100 -50 Level Chicago Center
Fri 12:55:26 AM 43.4425 -88.4619 357° North 178 205 4,000 -100 Descending Chicago Center

Login

Don't have an account? Register now (free) for customized features, flight alerts, and more!